sensor_id;sensor_type;location;lat;lon;timestamp;P1;durP1;ratioP1;P2;durP2;ratioP2
62110;SDS011;48102;47.526;19.072;2024-02-14T04:42:36;6.18;;;3.45;;
62110;SDS011;48102;47.526;19.072;2024-02-14T04:45:40;6.80;;;3.92;;
62110;SDS011;48102;47.526;19.072;2024-02-14T04:48:42;9.70;;;3.95;;
62110;SDS011;48102;47.526;19.072;2024-02-14T04:51:45;5.75;;;3.42;;
62110;SDS011;48102;47.526;19.072;2024-02-14T04:54:48;8.27;;;3.22;;
62110;SDS011;48102;47.526;19.072;2024-02-14T04:57:50;5.87;;;3.45;;
62110;SDS011;48102;47.526;19.072;2024-02-14T05:00:53;4.53;;;3.37;;
62110;SDS011;48102;47.526;19.072;2024-02-14T05:03:57;6.37;;;3.83;;
62110;SDS011;48102;47.526;19.072;2024-02-14T05:06:59;9.63;;;4.25;;
62110;SDS011;48102;47.526;19.072;2024-02-14T05:10:02;5.07;;;3.75;;
62110;SDS011;48102;47.526;19.072;2024-02-14T05:13:05;6.22;;;4.03;;
62110;SDS011;48102;47.526;19.072;2024-02-14T05:19:12;7.10;;;4.45;;
62110;SDS011;48102;47.526;19.072;2024-02-14T05:22:15;4.53;;;3.85;;
62110;SDS011;48102;47.526;19.072;2024-02-14T05:25:18;7.85;;;4.70;;
62110;SDS011;48102;47.526;19.072;2024-02-14T05:28:21;8.70;;;4.43;;
62110;SDS011;48102;47.526;19.072;2024-02-14T05:31:23;9.30;;;4.60;;
62110;SDS011;48102;47.526;19.072;2024-02-14T05:34:26;8.18;;;5.00;;
62110;SDS011;48102;47.526;19.072;2024-02-14T05:37:29;11.48;;;5.50;;
62110;SDS011;48102;47.526;19.072;2024-02-14T05:40:31;9.00;;;4.80;;
62110;SDS011;48102;47.526;19.072;2024-02-14T05:43:34;8.23;;;4.43;;
62110;SDS011;48102;47.526;19.072;2024-02-14T05:46:37;9.77;;;4.85;;
62110;SDS011;48102;47.526;19.072;2024-02-14T05:49:39;6.07;;;4.57;;
62110;SDS011;48102;47.526;19.072;2024-02-14T05:52:42;13.65;;;4.35;;
62110;SDS011;48102;47.526;19.072;2024-02-14T05:55:45;6.18;;;4.70;;
62110;SDS011;48102;47.526;19.072;2024-02-14T05:58:47;18.33;;;5.15;;
62110;SDS011;48102;47.526;19.072;2024-02-14T06:01:50;9.43;;;5.72;;
62110;SDS011;48102;47.526;19.072;2024-02-14T06:04:52;9.25;;;4.87;;
62110;SDS011;48102;47.526;19.072;2024-02-14T06:07:55;10.83;;;4.80;;
62110;SDS011;48102;47.526;19.072;2024-02-14T06:10:58;8.88;;;5.72;;
62110;SDS011;48102;47.526;19.072;2024-02-14T06:14:01;11.23;;;6.07;;
62110;SDS011;48102;47.526;19.072;2024-02-14T06:17:03;11.65;;;5.80;;
62110;SDS011;48102;47.526;19.072;2024-02-14T06:20:06;9.80;;;5.65;;
62110;SDS011;48102;47.526;19.072;2024-02-14T06:23:10;13.68;;;5.50;;
62110;SDS011;48102;47.526;19.072;2024-02-14T06:26:13;9.00;;;5.93;;
62110;SDS011;48102;47.526;19.072;2024-02-14T06:29:17;7.97;;;6.03;;
62110;SDS011;48102;47.526;19.072;2024-02-14T06:32:19;15.90;;;7.03;;
62110;SDS011;48102;47.526;19.072;2024-02-14T06:35:22;11.38;;;6.05;;
62110;SDS011;48102;47.526;19.072;2024-02-14T06:38:24;11.77;;;6.05;;
62110;SDS011;48102;47.526;19.072;2024-02-14T06:41:27;9.43;;;5.93;;
62110;SDS011;48102;47.526;19.072;2024-02-14T06:44:29;11.45;;;5.78;;
62110;SDS011;48102;47.526;19.072;2024-02-14T06:47:34;17.50;;;5.47;;
62110;SDS011;48102;47.526;19.072;2024-02-14T06:50:36;8.40;;;5.37;;
62110;SDS011;48102;47.526;19.072;2024-02-14T06:53:39;8.18;;;4.75;;
62110;SDS011;48102;47.526;19.072;2024-02-14T06:56:42;8.00;;;5.43;;
62110;SDS011;48102;47.526;19.072;2024-02-14T06:59:45;8.25;;;5.62;;
62110;SDS011;48102;47.526;19.072;2024-02-14T07:02:47;12.63;;;5.87;;
62110;SDS011;48102;47.526;19.072;2024-02-14T07:05:50;10.48;;;5.18;;
62110;SDS011;48102;47.526;19.072;2024-02-14T07:08:54;13.02;;;5.57;;
62110;SDS011;48102;47.526;19.072;2024-02-14T07:11:57;7.40;;;5.72;;
62110;SDS011;48102;47.526;19.072;2024-02-14T07:15:00;7.75;;;5.10;;
62110;SDS011;48102;47.526;19.072;2024-02-14T07:18:03;9.18;;;5.00;;
62110;SDS011;48102;47.526;19.072;2024-02-14T07:21:06;7.65;;;5.37;;
62110;SDS011;48102;47.526;19.072;2024-02-14T07:24:09;8.15;;;5.15;;
62110;SDS011;48102;47.526;19.072;2024-02-14T07:27:12;7.57;;;4.18;;
62110;SDS011;48102;47.526;19.072;2024-02-14T07:30:15;9.55;;;5.28;;
62110;SDS011;48102;47.526;19.072;2024-02-14T07:33:18;10.27;;;4.65;;
62110;SDS011;48102;47.526;19.072;2024-02-14T07:36:21;7.20;;;4.75;;
62110;SDS011;48102;47.526;19.072;2024-02-14T07:39:24;7.43;;;4.97;;
62110;SDS011;48102;47.526;19.072;2024-02-14T07:42:27;6.62;;;5.00;;
62110;SDS011;48102;47.526;19.072;2024-02-14T07:45:29;7.55;;;5.03;;
62110;SDS011;48102;47.526;19.072;2024-02-14T07:48:32;8.57;;;6.18;;
62110;SDS011;48102;47.526;19.072;2024-02-14T07:51:35;6.45;;;4.55;;
62110;SDS011;48102;47.526;19.072;2024-02-14T07:54:40;11.77;;;4.28;;
62110;SDS011;48102;47.526;19.072;2024-02-14T07:57:44;11.77;;;4.60;;
62110;SDS011;48102;47.526;19.072;2024-02-14T08:00:47;7.57;;;5.15;;
62110;SDS011;48102;47.526;19.072;2024-02-14T08:03:49;6.72;;;5.20;;
62110;SDS011;48102;47.526;19.072;2024-02-14T08:06:52;8.23;;;4.97;;
62110;SDS011;48102;47.526;19.072;2024-02-14T08:09:54;7.05;;;4.80;;
62110;SDS011;48102;47.526;19.072;2024-02-14T08:12:57;7.55;;;4.70;;
62110;SDS011;48102;47.526;19.072;2024-02-14T08:16:00;10.40;;;5.82;;
62110;SDS011;48102;47.526;19.072;2024-02-14T08:19:02;10.43;;;5.60;;
62110;SDS011;48102;47.526;19.072;2024-02-14T08:22:05;6.93;;;4.30;;
62110;SDS011;48102;47.526;19.072;2024-02-14T08:25:09;8.18;;;5.25;;
62110;SDS011;48102;47.526;19.072;2024-02-14T08:28:12;8.52;;;5.20;;
62110;SDS011;48102;47.526;19.072;2024-02-14T08:31:14;7.15;;;4.90;;
62110;SDS011;48102;47.526;19.072;2024-02-14T08:34:17;6.22;;;4.65;;
62110;SDS011;48102;47.526;19.072;2024-02-14T08:37:20;7.22;;;4.57;;
62110;SDS011;48102;47.526;19.072;2024-02-14T08:40:22;5.15;;;3.60;;
62110;SDS011;48102;47.526;19.072;2024-02-14T08:43:24;4.83;;;3.50;;
62110;SDS011;48102;47.526;19.072;2024-02-14T08:46:28;5.65;;;3.22;;
62110;SDS011;48102;47.526;19.072;2024-02-14T08:49:30;5.80;;;3.40;;
62110;SDS011;48102;47.526;19.072;2024-02-14T08:52:33;4.28;;;2.45;;
62110;SDS011;48102;47.526;19.072;2024-02-14T08:55:35;5.20;;;3.42;;
62110;SDS011;48102;47.526;19.072;2024-02-14T08:58:40;4.12;;;3.10;;
62110;SDS011;48102;47.526;19.072;2024-02-14T09:01:42;5.13;;;3.70;;
62110;SDS011;48102;47.526;19.072;2024-02-14T09:04:45;3.53;;;2.78;;
62110;SDS011;48102;47.526;19.072;2024-02-14T09:07:48;8.10;;;3.28;;
62110;SDS011;48102;47.526;19.072;2024-02-14T09:10:50;5.87;;;3.72;;
62110;SDS011;48102;47.526;19.072;2024-02-14T09:13:53;5.57;;;3.40;;
62110;SDS011;48102;47.526;19.072;2024-02-14T09:16:58;6.28;;;3.03;;
62110;SDS011;48102;47.526;19.072;2024-02-14T09:20:00;6.43;;;3.62;;
62110;SDS011;48102;47.526;19.072;2024-02-14T09:26:06;5.95;;;2.40;;
62110;SDS011;48102;47.526;19.072;2024-02-14T09:29:09;6.57;;;2.20;;
62110;SDS011;48102;47.526;19.072;2024-02-14T09:32:13;11.23;;;2.70;;
62110;SDS011;48102;47.526;19.072;2024-02-14T09:38:18;5.30;;;3.12;;
62110;SDS011;48102;47.526;19.072;2024-02-14T09:41:56;3.05;;;2.65;;
62110;SDS011;48102;47.526;19.072;2024-02-14T09:44:50;11.65;;;2.92;;
62110;SDS011;48102;47.526;19.072;2024-02-14T09:47:54;6.32;;;2.33;;
62110;SDS011;48102;47.526;19.072;2024-02-14T09:50:57;4.90;;;2.92;;
62110;SDS011;48102;47.526;19.072;2024-02-14T09:54:00;3.55;;;2.40;;
62110;SDS011;48102;47.526;19.072;2024-02-14T09:57:03;4.25;;;2.72;;
62110;SDS011;48102;47.526;19.072;2024-02-14T10:00:06;7.62;;;2.75;;
62110;SDS011;48102;47.526;19.072;2024-02-14T10:03:11;6.35;;;2.37;;
62110;SDS011;48102;47.526;19.072;2024-02-14T10:06:14;4.53;;;1.50;;
62110;SDS011;48102;47.526;19.072;2024-02-14T10:09:23;5.18;;;2.72;;
62110;SDS011;48102;47.526;19.072;2024-02-14T10:12:28;3.20;;;1.60;;
62110;SDS011;48102;47.526;19.072;2024-02-14T10:15:32;3.15;;;1.37;;
62110;SDS011;48102;47.526;19.072;2024-02-14T10:18:34;4.62;;;1.85;;
62110;SDS011;48102;47.526;19.072;2024-02-14T10:21:37;4.45;;;1.73;;
62110;SDS011;48102;47.526;19.072;2024-02-14T10:24:43;4.43;;;1.37;;
62110;SDS011;48102;47.526;19.072;2024-02-14T10:27:45;3.72;;;1.60;;
62110;SDS011;48102;47.526;19.072;2024-02-14T10:30:49;3.20;;;1.98;;
62110;SDS011;48102;47.526;19.072;2024-02-14T10:33:53;2.53;;;2.00;;
62110;SDS011;48102;47.526;19.072;2024-02-14T10:36:57;1.62;;;1.35;;
62110;SDS011;48102;47.526;19.072;2024-02-14T10:40:03;2.95;;;1.62;;
62110;SDS011;48102;47.526;19.072;2024-02-14T10:43:06;3.42;;;1.98;;
62110;SDS011;48102;47.526;19.072;2024-02-14T10:49:11;2.92;;;1.62;;
62110;SDS011;48102;47.526;19.072;2024-02-14T10:52:15;3.37;;;1.95;;
62110;SDS011;48102;47.526;19.072;2024-02-14T10:58:20;6.03;;;2.45;;
62110;SDS011;48102;47.526;19.072;2024-02-14T11:01:27;5.70;;;2.85;;
62110;SDS011;48102;47.526;19.072;2024-02-14T11:04:33;3.65;;;2.17;;
62110;SDS011;48102;47.526;19.072;2024-02-14T11:07:36;3.53;;;2.22;;
62110;SDS011;48102;47.526;19.072;2024-02-14T11:10:39;3.40;;;2.33;;
62110;SDS011;48102;47.526;19.072;2024-02-14T11:13:41;4.20;;;2.35;;
62110;SDS011;48102;47.526;19.072;2024-02-14T11:16:45;7.75;;;3.03;;
62110;SDS011;48102;47.526;19.072;2024-02-14T11:19:47;7.37;;;2.95;;
62110;SDS011;48102;47.526;19.072;2024-02-14T11:25:59;3.80;;;2.80;;
62110;SDS011;48102;47.526;19.072;2024-02-14T11:29:03;5.75;;;2.90;;
62110;SDS011;48102;47.526;19.072;2024-02-14T11:32:05;6.37;;;3.55;;
62110;SDS011;48102;47.526;19.072;2024-02-14T11:35:13;8.02;;;2.87;;
62110;SDS011;48102;47.526;19.072;2024-02-14T11:38:16;5.47;;;3.08;;
62110;SDS011;48102;47.526;19.072;2024-02-14T11:41:19;3.95;;;2.42;;
62110;SDS011;48102;47.526;19.072;2024-02-14T11:44:22;3.62;;;2.37;;
62110;SDS011;48102;47.526;19.072;2024-02-14T11:50:27;5.43;;;2.47;;
62110;SDS011;48102;47.526;19.072;2024-02-14T11:53:32;8.88;;;2.37;;
62110;SDS011;48102;47.526;19.072;2024-02-14T11:56:37;3.00;;;2.50;;
62110;SDS011;48102;47.526;19.072;2024-02-14T11:59:40;2.37;;;2.00;;
62110;SDS011;48102;47.526;19.072;2024-02-14T12:02:43;3.47;;;1.90;;
62110;SDS011;48102;47.526;19.072;2024-02-14T12:05:46;2.30;;;1.85;;
62110;SDS011;48102;47.526;19.072;2024-02-14T12:08:50;2.50;;;1.45;;
62110;SDS011;48102;47.526;19.072;2024-02-14T12:14:56;1.33;;;1.23;;
62110;SDS011;48102;47.526;19.072;2024-02-14T12:17:58;1.87;;;1.40;;
62110;SDS011;48102;47.526;19.072;2024-02-14T12:21:07;4.82;;;1.50;;
62110;SDS011;48102;47.526;19.072;2024-02-14T12:24:10;2.80;;;1.30;;
62110;SDS011;48102;47.526;19.072;2024-02-14T12:30:16;1.83;;;1.40;;
62110;SDS011;48102;47.526;19.072;2024-02-14T12:33:19;3.55;;;1.45;;
62110;SDS011;48102;47.526;19.072;2024-02-14T12:36:22;1.83;;;1.37;;
62110;SDS011;48102;47.526;19.072;2024-02-14T12:39:24;2.70;;;1.60;;
62110;SDS011;48102;47.526;19.072;2024-02-14T12:42:28;3.15;;;1.55;;
62110;SDS011;48102;47.526;19.072;2024-02-14T12:45:31;3.58;;;1.55;;
62110;SDS011;48102;47.526;19.072;2024-02-14T12:48:33;4.90;;;1.87;;
62110;SDS011;48102;47.526;19.072;2024-02-14T12:51:36;2.03;;;1.48;;
62110;SDS011;48102;47.526;19.072;2024-02-14T12:54:41;2.08;;;1.40;;
62110;SDS011;48102;47.526;19.072;2024-02-14T12:57:43;4.55;;;2.15;;
62110;SDS011;48102;47.526;19.072;2024-02-14T13:00:46;2.30;;;1.73;;
62110;SDS011;48102;47.526;19.072;2024-02-14T13:03:48;3.10;;;2.08;;
62110;SDS011;48102;47.526;19.072;2024-02-14T13:06:51;3.60;;;1.95;;
62110;SDS011;48102;47.526;19.072;2024-02-14T13:09:54;3.53;;;2.45;;
62110;SDS011;48102;47.526;19.072;2024-02-14T13:16:01;4.57;;;1.95;;
62110;SDS011;48102;47.526;19.072;2024-02-14T13:19:04;3.85;;;2.22;;
62110;SDS011;48102;47.526;19.072;2024-02-14T13:22:07;6.12;;;2.60;;
62110;SDS011;48102;47.526;19.072;2024-02-14T13:25:10;3.45;;;2.53;;
62110;SDS011;48102;47.526;19.072;2024-02-14T13:28:13;4.60;;;2.35;;
62110;SDS011;48102;47.526;19.072;2024-02-14T13:31:16;3.08;;;2.42;;
62110;SDS011;48102;47.526;19.072;2024-02-14T13:34:19;5.70;;;2.83;;
62110;SDS011;48102;47.526;19.072;2024-02-14T13:37:22;3.80;;;2.75;;
62110;SDS011;48102;47.526;19.072;2024-02-14T13:40:25;9.02;;;3.05;;
62110;SDS011;48102;47.526;19.072;2024-02-14T13:43:28;4.07;;;2.62;;
62110;SDS011;48102;47.526;19.072;2024-02-14T13:46:30;5.03;;;2.75;;
62110;SDS011;48102;47.526;19.072;2024-02-14T13:49:33;6.72;;;3.05;;
62110;SDS011;48102;47.526;19.072;2024-02-14T13:52:35;3.67;;;2.92;;
62110;SDS011;48102;47.526;19.072;2024-02-14T13:58:41;4.15;;;3.10;;
62110;SDS011;48102;47.526;19.072;2024-02-14T14:01:45;7.32;;;3.12;;
62110;SDS011;48102;47.526;19.072;2024-02-14T14:04:48;3.95;;;2.97;;
62110;SDS011;48102;47.526;19.072;2024-02-14T14:10:59;4.93;;;3.25;;
62110;SDS011;48102;47.526;19.072;2024-02-14T14:14:02;5.00;;;3.40;;
62110;SDS011;48102;47.526;19.072;2024-02-14T14:17:04;5.40;;;3.22;;
62110;SDS011;48102;47.526;19.072;2024-02-14T14:20:07;4.97;;;3.15;;
62110;SDS011;48102;47.526;19.072;2024-02-14T14:23:10;6.95;;;3.42;;
62110;SDS011;48102;47.526;19.072;2024-02-14T14:26:12;7.60;;;3.57;;
62110;SDS011;48102;47.526;19.072;2024-02-14T14:29:16;5.20;;;3.20;;
62110;SDS011;48102;47.526;19.072;2024-02-14T14:32:18;5.00;;;3.47;;
62110;SDS011;48102;47.526;19.072;2024-02-14T14:38:23;3.58;;;2.53;;
62110;SDS011;48102;47.526;19.072;2024-02-14T14:41:27;6.57;;;2.95;;
62110;SDS011;48102;47.526;19.072;2024-02-14T14:44:31;4.62;;;3.25;;
62110;SDS011;48102;47.526;19.072;2024-02-14T14:47:34;4.28;;;3.40;;
62110;SDS011;48102;47.526;19.072;2024-02-14T14:50:37;7.05;;;3.00;;
62110;SDS011;48102;47.526;19.072;2024-02-14T14:53:40;5.40;;;2.90;;
62110;SDS011;48102;47.526;19.072;2024-02-14T14:56:43;8.88;;;3.35;;
62110;SDS011;48102;47.526;19.072;2024-02-14T14:59:48;4.28;;;3.05;;
62110;SDS011;48102;47.526;19.072;2024-02-14T15:02:51;7.43;;;3.08;;
62110;SDS011;48102;47.526;19.072;2024-02-14T15:08:56;3.92;;;2.80;;
62110;SDS011;48102;47.526;19.072;2024-02-14T15:11:59;5.15;;;3.20;;
62110;SDS011;48102;47.526;19.072;2024-02-14T15:15:02;7.97;;;3.20;;
62110;SDS011;48102;47.526;19.072;2024-02-14T15:18:05;3.97;;;2.92;;
62110;SDS011;48102;47.526;19.072;2024-02-14T15:21:07;5.12;;;2.97;;
62110;SDS011;48102;47.526;19.072;2024-02-14T15:24:11;8.25;;;2.78;;
62110;SDS011;48102;47.526;19.072;2024-02-14T15:27:15;6.68;;;3.05;;
62110;SDS011;48102;47.526;19.072;2024-02-14T15:30:24;6.65;;;3.05;;
62110;SDS011;48102;47.526;19.072;2024-02-14T15:33:45;6.15;;;3.22;;
62110;SDS011;48102;47.526;19.072;2024-02-14T15:39:50;5.62;;;3.20;;
62110;SDS011;48102;47.526;19.072;2024-02-14T15:42:54;7.78;;;3.60;;
62110;SDS011;48102;47.526;19.072;2024-02-14T15:45:56;6.18;;;3.10;;
62110;SDS011;48102;47.526;19.072;2024-02-14T15:49:00;4.25;;;3.10;;
62110;SDS011;48102;47.526;19.072;2024-02-14T15:52:03;5.90;;;3.70;;
62110;SDS011;48102;47.526;19.072;2024-02-14T15:55:07;6.22;;;3.67;;
62110;SDS011;48102;47.526;19.072;2024-02-14T15:58:12;7.53;;;3.55;;
62110;SDS011;48102;47.526;19.072;2024-02-14T16:01:18;5.28;;;3.65;;
62110;SDS011;48102;47.526;19.072;2024-02-14T16:04:21;5.95;;;3.80;;
62110;SDS011;48102;47.526;19.072;2024-02-14T16:07:23;5.72;;;3.67;;
62110;SDS011;48102;47.526;19.072;2024-02-14T16:10:25;6.40;;;3.20;;
62110;SDS011;48102;47.526;19.072;2024-02-14T16:13:28;7.93;;;4.10;;
62110;SDS011;48102;47.526;19.072;2024-02-14T16:16:32;10.13;;;3.72;;
62110;SDS011;48102;47.526;19.072;2024-02-14T16:19:34;4.90;;;4.03;;
62110;SDS011;48102;47.526;19.072;2024-02-14T16:22:37;6.20;;;3.40;;
62110;SDS011;48102;47.526;19.072;2024-02-14T16:25:40;3.85;;;2.90;;
62110;SDS011;48102;47.526;19.072;2024-02-14T16:31:45;5.97;;;3.62;;
62110;SDS011;48102;47.526;19.072;2024-02-14T16:34:50;5.72;;;3.78;;
62110;SDS011;48102;47.526;19.072;2024-02-14T16:37:52;7.00;;;4.05;;
62110;SDS011;48102;47.526;19.072;2024-02-14T16:40:55;5.22;;;3.80;;
62110;SDS011;48102;47.526;19.072;2024-02-14T16:43:57;5.12;;;3.60;;
62110;SDS011;48102;47.526;19.072;2024-02-14T16:47:00;5.53;;;3.92;;
